sensor_id;sensor_type;location;lat;lon;timestamp;temperature;humidity
65637;DHT22;52327;42.622;23.316;2023-06-19T00:00:38;17.79;71.55
65637;DHT22;52327;42.622;23.316;2023-06-19T00:03:04;17.68;72.58
65637;DHT22;52327;42.622;23.316;2023-06-19T00:05:30;17.79;72.84
65637;DHT22;52327;42.622;23.316;2023-06-19T00:07:56;17.82;71.71
65637;DHT22;52327;42.622;23.316;2023-06-19T00:10:31;17.89;71.92
65637;DHT22;52327;42.622;23.316;2023-06-19T00:12:56;17.79;71.81
65637;DHT22;52327;42.622;23.316;2023-06-19T00:15:22;17.84;71.63
65637;DHT22;52327;42.622;23.316;2023-06-19T00:17:48;17.74;71.93
65637;DHT22;52327;42.622;23.316;2023-06-19T00:20:13;17.71;71.40
65637;DHT22;52327;42.622;23.316;2023-06-19T00:22:40;17.77;72.36
65637;DHT22;52327;42.622;23.316;2023-06-19T00:25:06;17.73;70.41
65637;DHT22;52327;42.622;23.316;2023-06-19T00:27:32;17.74;72.37
65637;DHT22;52327;42.622;23.316;2023-06-19T00:29:57;17.84;71.29
65637;DHT22;52327;42.622;23.316;2023-06-19T00:32:29;17.91;70.84
65637;DHT22;52327;42.622;23.316;2023-06-19T00:34:55;17.77;70.88
65637;DHT22;52327;42.622;23.316;2023-06-19T00:37:20;17.84;68.98
65637;DHT22;52327;42.622;23.316;2023-06-19T00:39:46;17.63;71.18
65637;DHT22;52327;42.622;23.316;2023-06-19T00:42:12;17.73;70.51
65637;DHT22;52327;42.622;23.316;2023-06-19T00:44:37;17.70;69.74
65637;DHT22;52327;42.622;23.316;2023-06-19T00:47:04;17.55;72.01
65637;DHT22;52327;42.622;23.316;2023-06-19T00:49:30;17.50;71.37
65637;DHT22;52327;42.622;23.316;2023-06-19T00:51:56;17.68;71.13
65637;DHT22;52327;42.622;23.316;2023-06-19T00:54:22;17.71;71.11
65637;DHT22;52327;42.622;23.316;2023-06-19T00:56:48;17.77;71.78
65637;DHT22;52327;42.622;23.316;2023-06-19T00:59:18;17.73;73.38
65637;DHT22;52327;42.622;23.316;2023-06-19T01:01:44;17.70;70.75
65637;DHT22;52327;42.622;23.316;2023-06-19T01:04:10;17.53;71.64
65637;DHT22;52327;42.622;23.316;2023-06-19T01:07:02;17.16;72.13
65637;DHT22;52327;42.622;23.316;2023-06-19T01:09:41;17.23;74.69
65637;DHT22;52327;42.622;23.316;2023-06-19T01:12:16;17.07;75.56
65637;DHT22;52327;42.622;23.316;2023-06-19T01:14:57;16.99;78.23
65637;DHT22;52327;42.622;23.316;2023-06-19T01:17:29;16.68;79.25
65637;DHT22;52327;42.622;23.316;2023-06-19T01:19:56;16.42;78.91
65637;DHT22;52327;42.622;23.316;2023-06-19T01:22:26;16.42;79.71
65637;DHT22;52327;42.622;23.316;2023-06-19T01:24:52;16.40;79.65
65637;DHT22;52327;42.622;23.316;2023-06-19T01:27:17;16.31;80.43
65637;DHT22;52327;42.622;23.316;2023-06-19T01:29:43;16.40;79.00
65637;DHT22;52327;42.622;23.316;2023-06-19T01:32:20;16.40;78.89
65637;DHT22;52327;42.622;23.316;2023-06-19T01:34:48;16.40;80.70
65637;DHT22;52327;42.622;23.316;2023-06-19T01:37:15;16.38;79.70
65637;DHT22;52327;42.622;23.316;2023-06-19T01:39:42;16.35;80.88
65637;DHT22;52327;42.622;23.316;2023-06-19T01:42:08;16.24;79.61
65637;DHT22;52327;42.622;23.316;2023-06-19T01:44:45;16.03;81.50
65637;DHT22;52327;42.622;23.316;2023-06-19T01:47:13;16.10;80.27
65637;DHT22;52327;42.622;23.316;2023-06-19T01:49:41;15.91;82.71
65637;DHT22;52327;42.622;23.316;2023-06-19T01:52:07;15.74;81.98
65637;DHT22;52327;42.622;23.316;2023-06-19T01:54:33;15.59;82.17
65637;DHT22;52327;42.622;23.316;2023-06-19T01:56:59;15.49;81.83
65637;DHT22;52327;42.622;23.316;2023-06-19T01:59:24;15.22;82.09
65637;DHT22;52327;42.622;23.316;2023-06-19T02:01:50;15.16;84.52
65637;DHT22;52327;42.622;23.316;2023-06-19T02:04:15;15.16;84.36
65637;DHT22;52327;42.622;23.316;2023-06-19T02:06:41;15.23;83.88
65637;DHT22;52327;42.622;23.316;2023-06-19T02:09:06;15.11;83.93
65637;DHT22;52327;42.622;23.316;2023-06-19T02:11:33;15.09;84.11
65637;DHT22;52327;42.622;23.316;2023-06-19T02:13:58;15.02;83.05
65637;DHT22;52327;42.622;23.316;2023-06-19T02:16:24;14.92;83.17
65637;DHT22;52327;42.622;23.316;2023-06-19T02:18:49;14.95;82.24
65637;DHT22;52327;42.622;23.316;2023-06-19T02:21:15;14.88;83.13
65637;DHT22;52327;42.622;23.316;2023-06-19T02:23:40;14.84;83.19
65637;DHT22;52327;42.622;23.316;2023-06-19T02:26:06;14.78;82.58
65637;DHT22;52327;42.622;23.316;2023-06-19T02:28:31;14.77;82.44
65637;DHT22;52327;42.622;23.316;2023-06-19T02:30:57;14.74;81.69
65637;DHT22;52327;42.622;23.316;2023-06-19T02:33:22;14.72;82.28
65637;DHT22;52327;42.622;23.316;2023-06-19T02:35:47;14.71;81.60
65637;DHT22;52327;42.622;23.316;2023-06-19T02:38:13;14.70;81.98
65637;DHT22;52327;42.622;23.316;2023-06-19T02:40:40;14.71;81.44
65637;DHT22;52327;42.622;23.316;2023-06-19T02:43:05;14.74;81.02
65637;DHT22;52327;42.622;23.316;2023-06-19T02:45:34;14.72;81.20
65637;DHT22;52327;42.622;23.316;2023-06-19T02:47:59;14.72;81.77
65637;DHT22;52327;42.622;23.316;2023-06-19T02:50:25;14.71;82.01
65637;DHT22;52327;42.622;23.316;2023-06-19T02:52:51;14.65;82.34
65637;DHT22;52327;42.622;23.316;2023-06-19T02:55:26;14.71;81.61
65637;DHT22;52327;42.622;23.316;2023-06-19T02:57:52;14.72;82.39
65637;DHT22;52327;42.622;23.316;2023-06-19T03:00:18;14.78;82.22
65637;DHT22;52327;42.622;23.316;2023-06-19T03:02:44;14.81;82.77
65637;DHT22;52327;42.622;23.316;2023-06-19T03:05:12;14.87;82.86
65637;DHT22;52327;42.622;23.316;2023-06-19T03:07:40;14.77;82.91
65637;DHT22;52327;42.622;23.316;2023-06-19T03:10:05;14.75;83.83
65637;DHT22;52327;42.622;23.316;2023-06-19T03:12:31;14.75;82.85
65637;DHT22;52327;42.622;23.316;2023-06-19T03:14:56;14.75;83.38
65637;DHT22;52327;42.622;23.316;2023-06-19T03:17:22;14.74;82.99
65637;DHT22;52327;42.622;23.316;2023-06-19T03:19:50;14.81;83.56
65637;DHT22;52327;42.622;23.316;2023-06-19T03:22:21;14.82;84.05
65637;DHT22;52327;42.622;23.316;2023-06-19T03:24:48;14.81;83.37
65637;DHT22;52327;42.622;23.316;2023-06-19T03:27:13;14.78;82.70
65637;DHT22;52327;42.622;23.316;2023-06-19T03:29:42;15.03;82.08
65637;DHT22;52327;42.622;23.316;2023-06-19T03:32:08;15.01;82.18
65637;DHT22;52327;42.622;23.316;2023-06-19T03:34:33;15.11;82.13
65637;DHT22;52327;42.622;23.316;2023-06-19T03:36:59;15.15;81.94
65637;DHT22;52327;42.622;23.316;2023-06-19T03:39:24;15.46;79.70
65637;DHT22;52327;42.622;23.316;2023-06-19T03:41:52;15.70;78.63
65637;DHT22;52327;42.622;23.316;2023-06-19T03:44:17;15.71;80.14
65637;DHT22;52327;42.622;23.316;2023-06-19T03:46:46;15.62;79.97
65637;DHT22;52327;42.622;23.316;2023-06-19T03:49:12;15.62;79.12
65637;DHT22;52327;42.622;23.316;2023-06-19T03:51:38;15.73;80.41
65637;DHT22;52327;42.622;23.316;2023-06-19T03:54:04;15.82;80.11
65637;DHT22;52327;42.622;23.316;2023-06-19T03:56:29;15.97;78.62
65637;DHT22;52327;42.622;23.316;2023-06-19T03:58:54;16.03;76.60
65637;DHT22;52327;42.622;23.316;2023-06-19T04:01:20;16.04;75.34
65637;DHT22;52327;42.622;23.316;2023-06-19T04:03:45;16.03;75.53
65637;DHT22;52327;42.622;23.316;2023-06-19T04:06:11;16.24;75.86
65637;DHT22;52327;42.622;23.316;2023-06-19T04:08:36;16.28;75.36
65637;DHT22;52327;42.622;23.316;2023-06-19T04:11:02;16.48;77.08
65637;DHT22;52327;42.622;23.316;2023-06-19T04:13:27;16.75;74.78
65637;DHT22;52327;42.622;23.316;2023-06-19T04:15:53;16.73;72.68
65637;DHT22;52327;42.622;23.316;2023-06-19T04:18:18;16.79;73.44
65637;DHT22;52327;42.622;23.316;2023-06-19T04:20:43;16.83;72.02
65637;DHT22;52327;42.622;23.316;2023-06-19T04:23:09;16.85;71.95
65637;DHT22;52327;42.622;23.316;2023-06-19T04:25:35;16.96;73.39
65637;DHT22;52327;42.622;23.316;2023-06-19T04:28:00;17.09;71.64
65637;DHT22;52327;42.622;23.316;2023-06-19T04:30:29;17.07;71.37
65637;DHT22;52327;42.622;23.316;2023-06-19T04:32:57;17.10;70.91
65637;DHT22;52327;42.622;23.316;2023-06-19T04:35:22;17.33;71.01
65637;DHT22;52327;42.622;23.316;2023-06-19T04:37:49;17.38;69.83
65637;DHT22;52327;42.622;23.316;2023-06-19T04:40:14;17.37;69.12
65637;DHT22;52327;42.622;23.316;2023-06-19T04:42:40;17.38;68.53
65637;DHT22;52327;42.622;23.316;2023-06-19T04:45:06;17.51;68.33
65637;DHT22;52327;42.622;23.316;2023-06-19T04:47:34;17.53;68.44
65637;DHT22;52327;42.622;23.316;2023-06-19T04:50:00;17.40;69.34
65637;DHT22;52327;42.622;23.316;2023-06-19T04:52:26;17.64;68.70
65637;DHT22;52327;42.622;23.316;2023-06-19T04:54:51;17.71;69.07
65637;DHT22;52327;42.622;23.316;2023-06-19T04:57:27;17.61;68.87
65637;DHT22;52327;42.622;23.316;2023-06-19T04:59:52;17.82;67.83
65637;DHT22;52327;42.622;23.316;2023-06-19T05:02:18;17.87;68.10
65637;DHT22;52327;42.622;23.316;2023-06-19T05:04:43;17.97;69.41
65637;DHT22;52327;42.622;23.316;2023-06-19T05:07:09;17.85;66.69
65637;DHT22;52327;42.622;23.316;2023-06-19T05:09:36;18.16;66.96
65637;DHT22;52327;42.622;23.316;2023-06-19T05:12:01;18.21;67.27
65637;DHT22;52327;42.622;23.316;2023-06-19T05:14:27;18.25;66.23
65637;DHT22;52327;42.622;23.316;2023-06-19T05:16:53;18.06;67.49
65637;DHT22;52327;42.622;23.316;2023-06-19T05:19:18;18.09;67.39
65637;DHT22;52327;42.622;23.316;2023-06-19T05:21:43;18.01;68.03
65637;DHT22;52327;42.622;23.316;2023-06-19T05:24:09;18.24;66.95
65637;DHT22;52327;42.622;23.316;2023-06-19T05:26:34;18.26;65.94
65637;DHT22;52327;42.622;23.316;2023-06-19T05:29:00;18.10;67.10
65637;DHT22;52327;42.622;23.316;2023-06-19T05:31:25;18.13;67.35
65637;DHT22;52327;42.622;23.316;2023-06-19T05:33:51;18.06;68.31
65637;DHT22;52327;42.622;23.316;2023-06-19T05:36:16;18.12;67.06
65637;DHT22;52327;42.622;23.316;2023-06-19T05:38:42;18.19;67.33
65637;DHT22;52327;42.622;23.316;2023-06-19T05:41:08;18.26;66.79
65637;DHT22;52327;42.622;23.316;2023-06-19T05:43:33;18.29;67.12
65637;DHT22;52327;42.622;23.316;2023-06-19T05:45:59;18.29;66.00
65637;DHT22;52327;42.622;23.316;2023-06-19T05:48:25;18.19;66.52
65637;DHT22;52327;42.622;23.316;2023-06-19T05:50:51;18.01;65.98
65637;DHT22;52327;42.622;23.316;2023-06-19T05:53:16;17.97;67.21
65637;DHT22;52327;42.622;23.316;2023-06-19T05:55:42;17.98;67.81
65637;DHT22;52327;42.622;23.316;2023-06-19T05:58:08;18.25;67.54
65637;DHT22;52327;42.622;23.316;2023-06-19T06:00:33;18.33;66.49
65637;DHT22;52327;42.622;23.316;2023-06-19T06:02:59;18.56;67.23
65637;DHT22;52327;42.622;23.316;2023-06-19T06:05:26;18.49;66.87
65637;DHT22;52327;42.622;23.316;2023-06-19T06:07:52;18.66;66.05
65637;DHT22;52327;42.622;23.316;2023-06-19T06:10:19;18.57;65.59
65637;DHT22;52327;42.622;23.316;2023-06-19T06:12:45;18.43;65.91
65637;DHT22;52327;42.622;23.316;2023-06-19T06:15:10;18.24;66.61
65637;DHT22;52327;42.622;23.316;2023-06-19T06:17:36;18.38;66.76
65637;DHT22;52327;42.622;23.316;2023-06-19T06:20:02;18.55;66.39
65637;DHT22;52327;42.622;23.316;2023-06-19T06:22:31;18.90;66.14
65637;DHT22;52327;42.622;23.316;2023-06-19T06:24:57;18.91;65.81
65637;DHT22;52327;42.622;23.316;2023-06-19T06:27:22;18.90;63.99
65637;DHT22;52327;42.622;23.316;2023-06-19T06:29:48;18.81;65.01
65637;DHT22;52327;42.622;23.316;2023-06-19T06:32:13;18.76;67.21
65637;DHT22;52327;42.622;23.316;2023-06-19T06:34:39;18.74;65.32
65637;DHT22;52327;42.622;23.316;2023-06-19T06:37:04;18.74;65.71
65637;DHT22;52327;42.622;23.316;2023-06-19T06:39:29;18.79;64.11
65637;DHT22;52327;42.622;23.316;2023-06-19T06:41:55;18.74;65.37
65637;DHT22;52327;42.622;23.316;2023-06-19T06:44:21;18.93;66.04
65637;DHT22;52327;42.622;23.316;2023-06-19T06:46:47;19.04;65.66
65637;DHT22;52327;42.622;23.316;2023-06-19T06:49:12;19.24;64.35
65637;DHT22;52327;42.622;23.316;2023-06-19T06:51:38;19.21;65.21
65637;DHT22;52327;42.622;23.316;2023-06-19T06:54:04;19.38;65.20
65637;DHT22;52327;42.622;23.316;2023-06-19T06:56:29;19.49;65.03
65637;DHT22;52327;42.622;23.316;2023-06-19T06:58:55;19.38;65.35
65637;DHT22;52327;42.622;23.316;2023-06-19T07:01:20;19.39;64.90
65637;DHT22;52327;42.622;23.316;2023-06-19T07:03:46;19.54;63.65
65637;DHT22;52327;42.622;23.316;2023-06-19T07:06:11;19.51;64.79
65637;DHT22;52327;42.622;23.316;2023-06-19T07:08:37;19.49;64.06
65637;DHT22;52327;42.622;23.316;2023-06-19T07:11:03;19.66;64.13
65637;DHT22;52327;42.622;23.316;2023-06-19T07:13:29;19.94;62.68
65637;DHT22;52327;42.622;23.316;2023-06-19T07:15:54;20.09;65.39
65637;DHT22;52327;42.622;23.316;2023-06-19T07:18:19;19.96;62.71
65637;DHT22;52327;42.622;23.316;2023-06-19T07:20:45;19.93;64.07
65637;DHT22;52327;42.622;23.316;2023-06-19T07:23:10;20.06;62.87
65637;DHT22;52327;42.622;23.316;2023-06-19T07:25:36;20.02;63.02
65637;DHT22;52327;42.622;23.316;2023-06-19T07:28:02;20.19;61.55
65637;DHT22;52327;42.622;23.316;2023-06-19T07:30:30;20.10;61.49
65637;DHT22;52327;42.622;23.316;2023-06-19T07:32:55;19.79;62.84
65637;DHT22;52327;42.622;23.316;2023-06-19T07:35:21;20.06;64.06
65637;DHT22;52327;42.622;23.316;2023-06-19T07:37:46;19.99;61.09
65637;DHT22;52327;42.622;23.316;2023-06-19T07:40:11;19.87;61.25
65637;DHT22;52327;42.622;23.316;2023-06-19T07:42:37;20.12;62.72
65637;DHT22;52327;42.622;23.316;2023-06-19T07:45:03;20.12;62.23
65637;DHT22;52327;42.622;23.316;2023-06-19T07:47:29;20.17;63.60
65637;DHT22;52327;42.622;23.316;2023-06-19T07:49:54;20.09;62.11
65637;DHT22;52327;42.622;23.316;2023-06-19T07:52:20;20.33;61.86
65637;DHT22;52327;42.622;23.316;2023-06-19T07:54:51;20.43;61.45
65637;DHT22;52327;42.622;23.316;2023-06-19T07:57:17;20.22;61.44
65637;DHT22;52327;42.622;23.316;2023-06-19T07:59:42;20.37;62.78
65637;DHT22;52327;42.622;23.316;2023-06-19T08:02:08;20.51;63.07
65637;DHT22;52327;42.622;23.316;2023-06-19T08:04:33;20.20;61.25
65637;DHT22;52327;42.622;23.316;2023-06-19T08:06:58;20.32;60.58
65637;DHT22;52327;42.622;23.316;2023-06-19T08:09:24;20.29;59.83
65637;DHT22;52327;42.622;23.316;2023-06-19T08:11:49;20.16;57.90
65637;DHT22;52327;42.622;23.316;2023-06-19T08:14:15;20.27;58.98
65637;DHT22;52327;42.622;23.316;2023-06-19T08:16:40;20.23;59.10
65637;DHT22;52327;42.622;23.316;2023-06-19T08:19:06;20.64;58.36
65637;DHT22;52327;42.622;23.316;2023-06-19T08:21:31;20.74;57.28
65637;DHT22;52327;42.622;23.316;2023-06-19T08:23:56;20.80;55.28
65637;DHT22;52327;42.622;23.316;2023-06-19T08:26:22;20.98;56.72
65637;DHT22;52327;42.622;23.316;2023-06-19T08:28:47;21.01;55.96
65637;DHT22;52327;42.622;23.316;2023-06-19T08:31:13;21.06;58.26
65637;DHT22;52327;42.622;23.316;2023-06-19T08:33:38;21.36;56.39
65637;DHT22;52327;42.622;23.316;2023-06-19T08:36:04;21.31;52.18
65637;DHT22;52327;42.622;23.316;2023-06-19T08:38:30;21.08;52.38
65637;DHT22;52327;42.622;23.316;2023-06-19T08:40:55;21.02;50.88
65637;DHT22;52327;42.622;23.316;2023-06-19T08:43:21;21.06;52.78
65637;DHT22;52327;42.622;23.316;2023-06-19T08:46:07;21.02;50.20
65637;DHT22;52327;42.622;23.316;2023-06-19T08:48:37;21.02;50.66
65637;DHT22;52327;42.622;23.316;2023-06-19T08:51:04;20.87;50.94
65637;DHT22;52327;42.622;23.316;2023-06-19T08:53:33;21.12;52.18
65637;DHT22;52327;42.622;23.316;2023-06-19T08:55:59;21.21;49.02
65637;DHT22;52327;42.622;23.316;2023-06-19T08:58:25;21.38;49.59
65637;DHT22;52327;42.622;23.316;2023-06-19T09:00:51;21.29;48.81
65637;DHT22;52327;42.622;23.316;2023-06-19T09:03:20;21.52;49.13
65637;DHT22;52327;42.622;23.316;2023-06-19T09:05:49;21.86;47.40
65637;DHT22;52327;42.622;23.316;2023-06-19T09:08:18;21.57;48.56
65637;DHT22;52327;42.622;23.316;2023-06-19T09:11:01;21.28;48.27
65637;DHT22;52327;42.622;23.316;2023-06-19T09:13:28;21.47;48.35
65637;DHT22;52327;42.622;23.316;2023-06-19T09:16:05;21.33;48.13
65637;DHT22;52327;42.622;23.316;2023-06-19T09:18:47;21.69;50.06
65637;DHT22;52327;42.622;23.316;2023-06-19T09:21:17;21.83;48.65
65637;DHT22;52327;42.622;23.316;2023-06-19T09:23:50;21.90;48.67
65637;DHT22;52327;42.622;23.316;2023-06-19T09:26:26;22.06;47.83
65637;DHT22;52327;42.622;23.316;2023-06-19T09:28:52;21.70;46.35
65637;DHT22;52327;42.622;23.316;2023-06-19T09:31:31;21.36;47.20
65637;DHT22;52327;42.622;23.316;2023-06-19T09:33:57;21.77;48.77
65637;DHT22;52327;42.622;23.316;2023-06-19T09:36:23;21.94;47.15
65637;DHT22;52327;42.622;23.316;2023-06-19T09:38:53;21.89;45.82
65637;DHT22;52327;42.622;23.316;2023-06-19T09:41:21;22.07;45.46
65637;DHT22;52327;42.622;23.316;2023-06-19T09:45:01;22.01;45.02
65637;DHT22;52327;42.622;23.316;2023-06-19T09:53:36;22.06;47.05
65637;DHT22;52327;42.622;23.316;2023-06-19T09:56:02;22.17;46.39
65637;DHT22;52327;42.622;23.316;2023-06-19T09:58:27;22.35;46.70
65637;DHT22;52327;42.622;23.316;2023-06-19T10:00:54;22.45;48.24
65637;DHT22;52327;42.622;23.316;2023-06-19T10:03:20;22.72;48.44
65637;DHT22;52327;42.622;23.316;2023-06-19T10:05:45;22.33;44.44
65637;DHT22;52327;42.622;23.316;2023-06-19T10:08:11;22.40;50.95
65637;DHT22;52327;42.622;23.316;2023-06-19T10:10:46;22.62;48.57
65637;DHT22;52327;42.622;23.316;2023-06-19T10:13:14;22.62;49.01
65637;DHT22;52327;42.622;23.316;2023-06-19T10:15:42;22.78;49.99
65637;DHT22;52327;42.622;23.316;2023-06-19T10:18:15;22.56;47.82
65637;DHT22;52327;42.622;23.316;2023-06-19T10:20:45;22.55;48.74
65637;DHT22;52327;42.622;23.316;2023-06-19T10:23:16;22.94;47.67
65637;DHT22;52327;42.622;23.316;2023-06-19T10:25:45;22.45;44.77
65637;DHT22;52327;42.622;23.316;2023-06-19T10:31:08;22.79;46.55
65637;DHT22;52327;42.622;23.316;2023-06-19T10:33:37;22.81;46.37
65637;DHT22;52327;42.622;23.316;2023-06-19T10:36:19;22.38;45.29
65637;DHT22;52327;42.622;23.316;2023-06-19T10:38:45;22.52;43.14
65637;DHT22;52327;42.622;23.316;2023-06-19T10:41:21;22.65;44.31
65637;DHT22;52327;42.622;23.316;2023-06-19T10:46:35;22.92;44.69
65637;DHT22;52327;42.622;23.316;2023-06-19T10:49:02;23.06;45.08
65637;DHT22;52327;42.622;23.316;2023-06-19T10:51:30;23.23;44.64
65637;DHT22;52327;42.622;23.316;2023-06-19T10:53:56;23.23;43.43
65637;DHT22;52327;42.622;23.316;2023-06-19T10:56:23;23.24;43.55
65637;DHT22;52327;42.622;23.316;2023-06-19T10:59:00;23.23;43.33
65637;DHT22;52327;42.622;23.316;2023-06-19T11:01:36;23.29;44.23
65637;DHT22;52327;42.622;23.316;2023-06-19T11:04:03;23.23;42.78
65637;DHT22;52327;42.622;23.316;2023-06-19T11:06:29;23.40;45.16
65637;DHT22;52327;42.622;23.316;2023-06-19T11:08:54;23.60;43.94
65637;DHT22;52327;42.622;23.316;2023-06-19T11:11:21;23.49;45.21
65637;DHT22;52327;42.622;23.316;2023-06-19T11:13:46;23.46;44.90
65637;DHT22;52327;42.622;23.316;2023-06-19T11:16:14;23.77;44.41
65637;DHT22;52327;42.622;23.316;2023-06-19T11:18:40;23.67;43.70
65637;DHT22;52327;42.622;23.316;2023-06-19T11:21:05;24.19;45.11
65637;DHT22;52327;42.622;23.316;2023-06-19T11:23:31;24.47;45.59
65637;DHT22;52327;42.622;23.316;2023-06-19T11:26:03;24.86;44.36
65637;DHT22;52327;42.622;23.316;2023-06-19T11:28:29;24.80;44.66
65637;DHT22;52327;42.622;23.316;2023-06-19T11:31:00;24.76;43.79
65637;DHT22;52327;42.622;23.316;2023-06-19T11:33:26;25.24;44.03
65637;DHT22;52327;42.622;23.316;2023-06-19T11:35:55;25.52;43.80
65637;DHT22;52327;42.622;23.316;2023-06-19T11:38:25;26.21;40.45
65637;DHT22;52327;42.622;23.316;2023-06-19T11:40:51;27.45;40.31
65637;DHT22;52327;42.622;23.316;2023-06-19T11:43:30;27.05;40.33
65637;DHT22;52327;42.622;23.316;2023-06-19T11:46:06;26.03;41.42
65637;DHT22;52327;42.622;23.316;2023-06-19T11:48:36;28.28;38.32
65637;DHT22;52327;42.622;23.316;2023-06-19T11:51:02;31.81;32.12
65637;DHT22;52327;42.622;23.316;2023-06-19T11:53:29;34.01;30.34
65637;DHT22;52327;42.622;23.316;2023-06-19T11:55:55;34.04;29.25
65637;DHT22;52327;42.622;23.316;2023-06-19T11:58:20;34.23;28.94
65637;DHT22;52327;42.622;23.316;2023-06-19T12:00:46;35.08;27.15
65637;DHT22;52327;42.622;23.316;2023-06-19T12:03:12;33.47;28.98
65637;DHT22;52327;42.622;23.316;2023-06-19T12:05:38;34.25;28.77
65637;DHT22;52327;42.622;23.316;2023-06-19T12:08:04;33.39;28.30
65637;DHT22;52327;42.622;23.316;2023-06-19T12:10:35;30.98;32.75
65637;DHT22;52327;42.622;23.316;2023-06-19T12:13:01;29.35;36.32
65637;DHT22;52327;42.622;23.316;2023-06-19T12:15:27;32.33;31.76
65637;DHT22;52327;42.622;23.316;2023-06-19T12:17:53;34.19;28.75
65637;DHT22;52327;42.622;23.316;2023-06-19T12:20:18;35.26;28.83
65637;DHT22;52327;42.622;23.316;2023-06-19T12:22:44;36.66;26.76
65637;DHT22;52327;42.622;23.316;2023-06-19T12:25:09;34.36;27.55
65637;DHT22;52327;42.622;23.316;2023-06-19T12:27:37;35.66;26.63
65637;DHT22;52327;42.622;23.316;2023-06-19T12:30:02;36.25;27.15
65637;DHT22;52327;42.622;23.316;2023-06-19T12:32:28;35.55;27.00
65637;DHT22;52327;42.622;23.316;2023-06-19T12:34:53;35.31;26.82
65637;DHT22;52327;42.622;23.316;2023-06-19T12:37:20;36.25;26.09
65637;DHT22;52327;42.622;23.316;2023-06-19T12:39:51;33.85;28.09
65637;DHT22;52327;42.622;23.316;2023-06-19T12:42:16;31.94;31.32
65637;DHT22;52327;42.622;23.316;2023-06-19T12:44:42;32.01;31.14
65637;DHT22;52327;42.622;23.316;2023-06-19T12:47:09;29.39;34.87
65637;DHT22;52327;42.622;23.316;2023-06-19T12:49:35;27.63;37.26
65637;DHT22;52327;42.622;23.316;2023-06-19T12:52:01;27.72;37.63
65637;DHT22;52327;42.622;23.316;2023-06-19T12:54:26;30.52;33.56
65637;DHT22;52327;42.622;23.316;2023-06-19T12:56:52;32.75;29.90
65637;DHT22;52327;42.622;23.316;2023-06-19T12:59:18;34.74;27.80
65637;DHT22;52327;42.622;23.316;2023-06-19T13:01:44;35.44;26.93
65637;DHT22;52327;42.622;23.316;2023-06-19T13:04:10;36.05;26.05
65637;DHT22;52327;42.622;23.316;2023-06-19T13:06:36;36.63;26.22
65637;DHT22;52327;42.622;23.316;2023-06-19T13:09:02;37.14;25.09
65637;DHT22;52327;42.622;23.316;2023-06-19T13:11:27;34.39;27.64
65637;DHT22;52327;42.622;23.316;2023-06-19T13:13:53;34.48;28.25
65637;DHT22;52327;42.622;23.316;2023-06-19T13:16:19;30.90;32.93
65637;DHT22;52327;42.622;23.316;2023-06-19T13:18:44;29.84;34.09
65637;DHT22;52327;42.622;23.316;2023-06-19T13:21:11;31.56;30.69
65637;DHT22;52327;42.622;23.316;2023-06-19T13:23:37;30.90;31.76
65637;DHT22;52327;42.622;23.316;2023-06-19T13:26:04;29.43;33.78
65637;DHT22;52327;42.622;23.316;2023-06-19T13:28:30;28.30;36.28
65637;DHT22;52327;42.622;23.316;2023-06-19T13:30:55;30.92;32.51
65637;DHT22;52327;42.622;23.316;2023-06-19T13:33:21;32.75;29.54
65637;DHT22;52327;42.622;23.316;2023-06-19T13:35:46;32.22;29.24
65637;DHT22;52327;42.622;23.316;2023-06-19T13:38:12;29.28;33.07
65637;DHT22;52327;42.622;23.316;2023-06-19T13:40:38;28.57;34.75
65637;DHT22;52327;42.622;23.316;2023-06-19T13:43:03;30.59;31.69
65637;DHT22;52327;42.622;23.316;2023-06-19T13:45:36;31.33;30.24
65637;DHT22;52327;42.622;23.316;2023-06-19T13:48:16;32.22;29.18
65637;DHT22;52327;42.622;23.316;2023-06-19T14:01:29;33.34;27.06
65637;DHT22;52327;42.622;23.316;2023-06-19T14:04:28;32.01;28.62
65637;DHT22;52327;42.622;23.316;2023-06-19T14:10:05;34.11;26.65
65637;DHT22;52327;42.622;23.316;2023-06-19T14:12:44;31.95;28.61
65637;DHT22;52327;42.622;23.316;2023-06-19T14:15:10;33.35;26.86
65637;DHT22;52327;42.622;23.316;2023-06-19T14:17:35;33.75;27.62
65637;DHT22;52327;42.622;23.316;2023-06-19T14:20:01;34.09;25.73
65637;DHT22;52327;42.622;23.316;2023-06-19T14:22:26;34.55;25.54
65637;DHT22;52327;42.622;23.316;2023-06-19T14:24:52;34.73;25.31
65637;DHT22;52327;42.622;23.316;2023-06-19T14:27:24;34.53;25.49
65637;DHT22;52327;42.622;23.316;2023-06-19T14:29:50;34.28;26.60
65637;DHT22;52327;42.622;23.316;2023-06-19T14:32:15;34.51;26.28
65637;DHT22;52327;42.622;23.316;2023-06-19T14:34:41;33.54;27.90
65637;DHT22;52327;42.622;23.316;2023-06-19T14:37:06;32.02;29.29
65637;DHT22;52327;42.622;23.316;2023-06-19T14:39:32;31.29;29.23
65637;DHT22;52327;42.622;23.316;2023-06-19T14:41:57;29.22;32.24
65637;DHT22;52327;42.622;23.316;2023-06-19T14:44:22;28.41;33.87
65637;DHT22;52327;42.622;23.316;2023-06-19T14:46:48;28.27;34.63
65637;DHT22;52327;42.622;23.316;2023-06-19T14:49:13;27.66;34.32
65637;DHT22;52327;42.622;23.316;2023-06-19T14:51:39;27.41;37.10
65637;DHT22;52327;42.622;23.316;2023-06-19T14:54:04;27.65;37.09
65637;DHT22;52327;42.622;23.316;2023-06-19T14:56:30;27.04;36.18
65637;DHT22;52327;42.622;23.316;2023-06-19T14:58:56;26.76;37.29
65637;DHT22;52327;42.622;23.316;2023-06-19T15:01:21;26.91;37.95
65637;DHT22;52327;42.622;23.316;2023-06-19T15:03:47;26.91;38.27
65637;DHT22;52327;42.622;23.316;2023-06-19T15:06:12;26.15;37.59
65637;DHT22;52327;42.622;23.316;2023-06-19T15:08:38;25.60;39.02
65637;DHT22;52327;42.622;23.316;2023-06-19T15:11:04;25.80;39.35
65637;DHT22;52327;42.622;23.316;2023-06-19T15:13:30;26.01;39.16
65637;DHT22;52327;42.622;23.316;2023-06-19T15:15:56;26.16;38.21
65637;DHT22;52327;42.622;23.316;2023-06-19T15:18:23;25.81;39.29
65637;DHT22;52327;42.622;23.316;2023-06-19T15:20:49;25.50;40.94
65637;DHT22;52327;42.622;23.316;2023-06-19T15:23:14;25.40;40.89
65637;DHT22;52327;42.622;23.316;2023-06-19T15:25:40;25.07;42.46
65637;DHT22;52327;42.622;23.316;2023-06-19T15:28:05;24.66;43.09
65637;DHT22;52327;42.622;23.316;2023-06-19T15:30:31;24.47;43.33
65637;DHT22;52327;42.622;23.316;2023-06-19T15:32:56;24.75;43.78
65637;DHT22;52327;42.622;23.316;2023-06-19T15:35:22;24.70;43.31
65637;DHT22;52327;42.622;23.316;2023-06-19T15:37:47;24.59;44.02
65637;DHT22;52327;42.622;23.316;2023-06-19T15:40:13;24.39;44.87